Time;durP1;ratioP1;P1;durP2;ratioP2;P2;SDS_P1;SDS_P2;PMS_P1;PMS_P2;Temp;Humidity;BMP_temperature;BMP_pressure;BME280_temperature;BME280_humidity;BME280_pressure;Samples;Min_cycle;Max_cycle;Signal;HPM_P1;HPM_P2
2023/07/28 00:00:05;;;;;;;13.73;6.03;;;18.40;99.90;;;;;;4954927;28;38995;-79
2023/07/28 00:02:34;;;;;;;14.90;6.30;;;18.40;99.90;;;;;;4972049;28;38739;-79
2023/07/28 00:05:00;;;;;;;13.18;6.25;;;18.40;99.90;;;;;;4956806;28;38623;-79
2023/07/28 00:07:27;;;;;;;19.80;7.47;;;18.40;99.90;;;;;;4970834;28;36870;-78
2023/07/28 00:09:56;;;;;;;18.58;7.25;;;18.40;99.90;;;;;;4969836;28;37776;-79
2023/07/28 00:12:22;;;;;;;21.30;6.85;;;18.40;99.90;;;;;;4954381;28;38297;-78
2023/07/28 00:14:49;;;;;;;16.17;6.72;;;18.50;99.90;;;;;;4938898;28;37564;-79
2023/07/28 00:17:15;;;;;;;19.77;7.03;;;18.40;99.90;;;;;;4953392;28;36300;-79
2023/07/28 00:19:41;;;;;;;16.67;7.00;;;18.40;99.90;;;;;;4970300;28;37846;-79
2023/07/28 00:22:07;;;;;;;13.82;6.70;;;18.40;99.90;;;;;;4977298;28;40376;-79
2023/07/28 00:24:36;;;;;;;21.50;6.95;;;18.40;99.90;;;;;;4971502;28;40074;-78
2023/07/28 00:27:02;;;;;;;13.25;7.20;;;18.40;99.90;;;;;;4972057;28;36992;-79
2023/07/28 00:29:28;;;;;;;17.92;7.25;;;18.50;99.90;;;;;;4974947;28;38910;-78
2023/07/28 00:31:55;;;;;;;15.10;6.75;;;18.50;99.90;;;;;;4953525;28;38161;-79
2023/07/28 00:34:22;;;;;;;18.67;7.55;;;18.40;99.90;;;;;;4964288;28;39639;-79
2023/07/28 00:36:48;;;;;;;20.92;7.63;;;18.40;99.90;;;;;;4960955;28;37462;-79
2023/07/28 00:39:14;;;;;;;21.77;7.55;;;18.40;99.90;;;;;;4952121;28;39680;-79
2023/07/28 00:41:42;;;;;;;19.13;7.70;;;18.40;99.90;;;;;;4967400;28;37821;-79
2023/07/28 00:44:09;;;;;;;21.48;7.43;;;18.40;99.90;;;;;;4962125;28;36392;-79
2023/07/28 00:46:36;;;;;;;18.52;8.07;;;18.40;99.90;;;;;;4969885;28;37812;-78
2023/07/28 00:49:24;;;;;;;16.35;6.82;;;18.40;99.90;;;;;;4969300;28;38053;-79
2023/07/28 00:51:51;;;;;;;20.95;8.27;;;18.50;99.90;;;;;;4955142;28;38887;-79
2023/07/28 00:54:18;;;;;;;21.25;8.52;;;18.40;99.90;;;;;;4948647;28;38250;-79
2023/07/28 00:56:50;;;;;;;23.42;8.38;;;18.40;99.90;;;;;;4962248;28;38574;-79
2023/07/28 00:59:17;;;;;;;18.63;8.27;;;18.50;99.90;;;;;;4972720;28;39406;-79
2023/07/28 01:04:14;;;;;;;24.65;8.40;;;18.50;99.90;;;;;;4948697;28;20529;-85
2023/07/28 01:06:57;;;;;;;21.35;8.13;;;18.50;99.90;;;;;;4940680;28;37398;-84
2023/07/28 01:10:01;;;;;;;17.15;7.40;;;18.50;99.90;;;;;;4937935;28;39603;-83
2023/07/28 01:12:28;;;;;;;19.67;7.82;;;18.50;99.90;;;;;;4943904;29;39062;-84
2023/07/28 01:15:00;;;;;;;24.00;7.65;;;18.50;99.90;;;;;;4952429;28;39051;-84
2023/07/28 01:17:28;;;;;;;25.45;9.05;;;18.50;99.90;;;;;;4920691;29;36963;-84
2023/07/28 01:19:55;;;;;;;23.58;8.45;;;18.50;99.90;;;;;;4919949;29;37501;-84
2023/07/28 01:22:24;;;;;;;24.33;9.55;;;18.50;99.90;;;;;;4919418;29;37984;-84
2023/07/28 01:24:59;;;;;;;19.83;7.88;;;18.50;99.90;;;;;;4936150;29;38455;-84
2023/07/28 01:27:28;;;;;;;21.75;9.07;;;18.50;99.90;;;;;;4935985;29;37126;-84
2023/07/28 01:29:54;;;;;;;27.38;8.90;;;18.50;99.90;;;;;;4914136;29;37520;-84
2023/07/28 01:32:20;;;;;;;22.50;8.75;;;18.50;99.90;;;;;;4913365;29;37618;-84
2023/07/28 01:34:46;;;;;;;25.80;9.30;;;18.50;99.90;;;;;;4900525;29;37382;-84
2023/07/28 01:37:13;;;;;;;29.50;9.70;;;18.50;99.90;;;;;;4929795;29;37205;-84
2023/07/28 01:39:39;;;;;;;21.02;9.23;;;18.50;99.90;;;;;;4913458;29;38567;-84
2023/07/28 01:42:05;;;;;;;27.35;10.73;;;18.50;99.90;;;;;;4935064;29;39639;-83
2023/07/28 01:44:31;;;;;;;21.73;11.15;;;18.50;99.90;;;;;;4921461;29;38382;-84
2023/07/28 01:46:57;;;;;;;23.10;10.00;;;18.50;99.90;;;;;;4907406;29;36283;-84
2023/07/28 01:49:24;;;;;;;28.20;10.20;;;18.50;99.90;;;;;;4898566;29;37681;-84
2023/07/28 01:51:50;;;;;;;26.10;9.65;;;18.50;99.90;;;;;;4916848;29;39084;-85
2023/07/28 01:54:16;;;;;;;21.38;9.18;;;18.50;99.90;;;;;;4916594;29;37778;-84
2023/07/28 01:56:42;;;;;;;33.17;9.63;;;18.50;99.90;;;;;;4917586;29;37445;-83
2023/07/28 01:59:08;;;;;;;25.55;10.77;;;18.50;99.90;;;;;;4911721;29;37788;-84
2023/07/28 02:01:35;;;;;;;29.23;10.18;;;18.50;99.90;;;;;;4909056;29;37697;-84
2023/07/28 02:04:01;;;;;;;22.42;9.73;;;18.50;99.90;;;;;;4911248;29;37421;-85
2023/07/28 02:06:28;;;;;;;27.17;10.38;;;18.50;99.90;;;;;;4903138;29;47439;-84
2023/07/28 02:08:54;;;;;;;23.70;9.57;;;18.50;99.90;;;;;;4901778;29;38022;-86
2023/07/28 02:11:21;;;;;;;20.13;9.40;;;18.50;99.90;;;;;;4900223;29;39074;-86
2023/07/28 02:13:47;;;;;;;26.02;10.82;;;18.50;99.90;;;;;;4946744;28;38959;-86
2023/07/28 02:16:13;;;;;;;26.25;10.23;;;18.50;99.90;;;;;;4921342;29;37906;-86
2023/07/28 02:18:39;;;;;;;26.08;9.88;;;18.50;99.90;;;;;;4932599;29;39995;-84
2023/07/28 02:21:08;;;;;;;26.08;10.10;;;18.50;99.90;;;;;;4915912;29;37707;-84
2023/07/28 02:23:35;;;;;;;27.70;11.27;;;18.40;99.90;;;;;;4916370;29;37412;-84
2023/07/28 02:26:01;;;;;;;23.60;10.02;;;18.50;99.90;;;;;;4902710;29;36400;-81
2023/07/28 02:28:28;;;;;;;27.17;11.35;;;18.50;99.90;;;;;;4915831;29;38901;-83
2023/07/28 02:30:54;;;;;;;37.47;11.23;;;18.50;99.90;;;;;;4928780;29;39493;-82
2023/07/28 02:33:20;;;;;;;32.15;11.40;;;18.50;99.90;;;;;;4913963;29;38430;-83
2023/07/28 02:35:46;;;;;;;26.58;10.55;;;18.50;99.90;;;;;;4903187;29;38492;-86
2023/07/28 02:38:13;;;;;;;29.92;10.55;;;18.50;99.90;;;;;;4929506;29;39842;-84
2023/07/28 02:40:39;;;;;;;25.20;9.65;;;18.50;99.90;;;;;;4927612;29;39751;-85
2023/07/28 02:43:05;;;;;;;25.13;9.55;;;18.50;99.90;;;;;;4908554;29;37285;-85
2023/07/28 02:45:31;;;;;;;22.50;9.63;;;18.50;99.90;;;;;;4904203;29;36248;-85
2023/07/28 02:47:57;;;;;;;23.50;10.25;;;18.50;99.90;;;;;;4905204;29;37946;-85
2023/07/28 02:50:23;;;;;;;28.90;11.07;;;18.50;99.90;;;;;;4908453;29;37439;-84
2023/07/28 02:52:49;;;;;;;22.50;10.43;;;18.50;99.90;;;;;;4925902;29;38323;-84
2023/07/28 02:55:15;;;;;;;31.08;10.27;;;18.50;99.90;;;;;;4912403;29;37276;-82
2023/07/28 02:57:41;;;;;;;21.98;10.63;;;18.50;99.90;;;;;;4903247;29;38963;-84
2023/07/28 03:00:10;;;;;;;29.88;11.93;;;18.50;99.90;;;;;;4926092;29;38726;-84
2023/07/28 03:02:36;;;;;;;25.05;10.82;;;18.50;99.90;;;;;;4904019;29;37612;-84
2023/07/28 03:05:03;;;;;;;32.22;11.10;;;18.50;99.90;;;;;;4902579;29;37607;-84
2023/07/28 03:07:30;;;;;;;29.25;10.70;;;18.50;99.90;;;;;;4899663;29;39062;-84
2023/07/28 03:09:56;;;;;;;26.50;11.13;;;18.50;99.90;;;;;;4910703;29;39425;-83
2023/07/28 03:12:22;;;;;;;22.55;9.25;;;18.50;99.90;;;;;;4911569;29;38881;-83
2023/07/28 03:14:48;;;;;;;25.33;10.20;;;18.60;99.90;;;;;;4902463;29;37676;-82
2023/07/28 03:17:14;;;;;;;23.33;9.82;;;18.60;99.90;;;;;;4901532;29;39619;-84
2023/07/28 03:19:41;;;;;;;25.75;9.60;;;18.50;99.90;;;;;;4903832;29;38578;-84
2023/07/28 03:22:07;;;;;;;30.63;10.73;;;18.50;99.90;;;;;;4880839;29;37698;-83
2023/07/28 03:24:33;;;;;;;22.30;10.00;;;18.60;99.90;;;;;;4902870;29;37123;-83
2023/07/28 03:26:59;;;;;;;23.00;10.32;;;18.50;99.90;;;;;;4910670;29;39264;-85
2023/07/28 03:29:25;;;;;;;24.58;10.30;;;18.60;99.90;;;;;;4912582;29;37426;-87
2023/07/28 03:31:51;;;;;;;25.70;10.15;;;18.50;99.90;;;;;;4896890;29;37206;-85
2023/07/28 03:34:17;;;;;;;24.15;8.60;;;18.50;99.90;;;;;;4908182;29;38068;-85
2023/07/28 03:36:43;;;;;;;20.38;8.85;;;18.50;99.90;;;;;;4899979;29;38323;-84
2023/07/28 03:39:09;;;;;;;20.05;8.80;;;18.60;99.90;;;;;;4914308;29;38834;-83
2023/07/28 03:41:36;;;;;;;24.40;9.30;;;18.60;99.90;;;;;;4900509;29;38684;-82
2023/07/28 03:44:02;;;;;;;21.52;9.75;;;18.60;99.90;;;;;;4919248;29;37197;-81
2023/07/28 03:46:28;;;;;;;26.42;10.40;;;18.60;99.90;;;;;;4902392;29;38966;-82
2023/07/28 03:48:55;;;;;;;27.23;10.27;;;18.60;99.90;;;;;;4906027;29;38127;-83
2023/07/28 03:51:21;;;;;;;21.50;8.45;;;18.60;99.90;;;;;;4916029;29;38273;-82
2023/07/28 03:53:47;;;;;;;24.20;9.98;;;18.60;99.90;;;;;;4901999;29;37676;-84
2023/07/28 03:56:13;;;;;;;20.55;8.52;;;18.60;99.90;;;;;;4903041;29;38272;-83
2023/07/28 03:58:39;;;;;;;22.65;10.13;;;18.60;99.90;;;;;;4912258;29;39016;-84
2023/07/28 04:01:07;;;;;;;19.40;9.00;;;18.60;99.90;;;;;;4902245;29;37716;-83
2023/07/28 04:03:33;;;;;;;22.02;8.93;;;18.60;99.90;;;;;;4915344;29;37373;-83
2023/07/28 04:05:59;;;;;;;24.63;9.52;;;18.60;99.90;;;;;;4918089;29;39100;-83
2023/07/28 04:08:25;;;;;;;24.15;10.00;;;18.60;99.90;;;;;;4928878;29;38154;-83
2023/07/28 04:10:52;;;;;;;19.10;8.60;;;18.60;99.90;;;;;;4909579;29;37361;-86
2023/07/28 04:13:18;;;;;;;27.70;9.35;;;18.60;99.90;;;;;;4916849;29;37499;-80
2023/07/28 04:15:44;;;;;;;23.23;8.50;;;18.60;99.90;;;;;;4934063;29;39661;-81
2023/07/28 04:18:11;;;;;;;26.08;8.88;;;18.60;99.90;;;;;;4908674;29;38881;-85
2023/07/28 04:20:41;;;;;;;26.60;9.70;;;18.60;99.90;;;;;;4920127;29;37586;-86
2023/07/28 04:23:09;;;;;;;23.75;8.48;;;18.60;99.90;;;;;;4922043;29;36164;-89
2023/07/28 04:25:35;;;;;;;18.08;8.40;;;18.60;99.90;;;;;;4921217;29;37796;-86
2023/07/28 04:28:01;;;;;;;21.45;8.95;;;18.70;99.90;;;;;;4924817;29;38487;-85
2023/07/28 04:30:27;;;;;;;17.80;8.30;;;18.70;99.90;;;;;;4913210;29;47121;-83
2023/07/28 04:32:53;;;;;;;20.85;8.90;;;18.70;99.90;;;;;;4920032;29;36302;-84
2023/07/28 04:35:20;;;;;;;16.92;8.02;;;18.70;99.90;;;;;;4911773;29;39862;-83
2023/07/28 04:37:46;;;;;;;23.95;9.10;;;18.60;99.90;;;;;;4916010;29;38173;-81
2023/07/28 04:40:13;;;;;;;18.55;7.72;;;18.60;99.90;;;;;;4910877;29;37427;-81
2023/07/28 04:42:39;;;;;;;22.90;7.72;;;18.70;99.90;;;;;;4909118;29;36094;-83
2023/07/28 04:45:06;;;;;;;25.67;8.18;;;18.70;99.90;;;;;;4927641;29;39646;-83
2023/07/28 04:47:32;;;;;;;19.55;7.80;;;18.70;99.90;;;;;;4906886;29;38990;-84
2023/07/28 04:49:58;;;;;;;21.55;7.63;;;18.70;99.90;;;;;;4904795;29;37260;-84
2023/07/28 04:52:24;;;;;;;26.67;7.65;;;18.70;99.90;;;;;;4934506;29;36810;-84
2023/07/28 04:54:50;;;;;;;19.05;7.55;;;18.70;99.90;;;;;;4936533;29;38624;-83
2023/07/28 04:57:18;;;;;;;26.90;8.82;;;18.70;99.90;;;;;;4937576;29;39844;-83
2023/07/28 04:59:44;;;;;;;23.77;7.05;;;18.70;99.90;;;;;;4906624;29;38589;-83
2023/07/28 05:02:10;;;;;;;19.02;7.35;;;18.70;99.90;;;;;;4905068;29;37470;-83
2023/07/28 05:04:37;;;;;;;19.95;7.88;;;18.70;99.90;;;;;;4910672;29;37686;-82
2023/07/28 05:07:04;;;;;;;18.05;7.45;;;18.70;99.90;;;;;;4908360;29;39037;-85
2023/07/28 05:09:30;;;;;;;35.05;9.63;;;18.70;99.90;;;;;;4911640;29;37584;-84
2023/07/28 05:11:56;;;;;;;24.67;8.27;;;18.70;99.90;;;;;;4897493;29;37958;-83
2023/07/28 05:14:22;;;;;;;17.88;7.13;;;18.80;99.90;;;;;;4909964;29;38135;-83
2023/07/28 05:16:48;;;;;;;21.75;8.05;;;18.80;99.90;;;;;;4909646;29;37782;-84
2023/07/28 05:19:14;;;;;;;18.58;7.53;;;18.80;99.90;;;;;;4903546;29;38880;-83
2023/07/28 05:21:40;;;;;;;18.65;7.70;;;18.80;99.90;;;;;;4919069;29;37401;-83
2023/07/28 05:24:07;;;;;;;23.42;7.80;;;18.80;99.90;;;;;;4916749;29;38161;-83
2023/07/28 05:26:33;;;;;;;21.10;7.10;;;18.80;99.90;;;;;;4914176;29;38104;-82
2023/07/28 05:28:59;;;;;;;26.15;7.55;;;18.80;99.90;;;;;;4909911;29;38807;-84
2023/07/28 05:31:25;;;;;;;19.92;8.20;;;18.80;99.90;;;;;;4915127;29;36083;-83
2023/07/28 05:33:53;;;;;;;24.65;9.13;;;18.80;99.90;;;;;;4923054;29;39490;-83
2023/07/28 05:36:19;;;;;;;18.08;7.18;;;18.80;99.90;;;;;;4930847;29;38621;-83
2023/07/28 05:38:45;;;;;;;18.88;7.18;;;18.80;99.90;;;;;;4898282;29;37661;-84
2023/07/28 05:41:12;;;;;;;19.98;6.50;;;18.90;99.90;;;;;;4909910;29;36671;-83
2023/07/28 05:43:38;;;;;;;21.65;6.63;;;18.80;99.90;;;;;;4900244;29;37713;-84
2023/07/28 05:46:04;;;;;;;22.73;7.22;;;18.90;99.90;;;;;;4900651;29;39244;-83
2023/07/28 05:48:30;;;;;;;19.67;6.97;;;18.90;99.90;;;;;;4924331;29;38589;-84
2023/07/28 05:50:56;;;;;;;19.77;6.70;;;18.90;99.90;;;;;;4913456;29;36294;-84
2023/07/28 05:53:22;;;;;;;18.80;7.63;;;18.90;99.90;;;;;;4890798;29;37708;-84
2023/07/28 05:55:48;;;;;;;11.65;6.43;;;18.90;99.90;;;;;;4914852;29;38006;-83
2023/07/28 05:58:15;;;;;;;11.30;5.70;;;18.90;99.90;;;;;;4904168;29;37539;-82
2023/07/28 06:00:41;;;;;;;13.73;5.18;;;18.90;99.90;;;;;;4914235;29;36009;-82
2023/07/28 06:03:11;;;;;;;9.27;5.13;;;18.90;99.90;;;;;;4901089;29;37947;-83
2023/07/28 06:05:40;;;;;;;12.75;5.55;;;18.80;99.90;;;;;;4909161;29;38269;-83
2023/07/28 06:08:07;;;;;;;12.43;5.70;;;18.90;99.90;;;;;;4909323;29;37377;-84
2023/07/28 06:10:33;;;;;;;10.75;4.95;;;18.90;99.90;;;;;;4900455;29;36303;-82
2023/07/28 06:12:59;;;;;;;10.85;5.28;;;18.90;99.90;;;;;;4900335;29;37633;-84
2023/07/28 06:15:26;;;;;;;10.55;4.78;;;18.90;99.90;;;;;;4904187;29;37753;-82
2023/07/28 06:17:52;;;;;;;8.55;4.95;;;19.00;99.90;;;;;;4908471;29;38523;-83
2023/07/28 06:20:18;;;;;;;8.80;5.20;;;19.00;99.90;;;;;;4903749;29;36091;-83
2023/07/28 06:22:45;;;;;;;8.07;4.85;;;19.00;99.90;;;;;;4909511;29;37419;-84
2023/07/28 06:25:11;;;;;;;9.18;4.60;;;19.00;99.90;;;;;;4902508;29;38250;-84
2023/07/28 06:27:38;;;;;;;11.02;4.72;;;19.10;99.90;;;;;;4907182;29;39007;-83
2023/07/28 06:30:05;;;;;;;8.93;5.65;;;19.10;99.90;;;;;;4902322;29;39481;-82
2023/07/28 06:32:31;;;;;;;11.95;4.95;;;19.10;99.90;;;;;;4891027;29;47434;-84
2023/07/28 06:34:57;;;;;;;7.35;4.30;;;19.20;99.90;;;;;;4903786;29;37938;-83
2023/07/28 06:37:23;;;;;;;14.02;5.97;;;19.20;99.90;;;;;;4892765;29;37689;-83
2023/07/28 06:39:49;;;;;;;12.27;4.75;;;19.20;99.90;;;;;;4893338;29;36961;-83
2023/07/28 06:42:19;;;;;;;19.02;5.85;;;19.30;99.90;;;;;;4905919;29;37946;-82
2023/07/28 06:44:46;;;;;;;20.35;6.20;;;19.30;99.90;;;;;;4904324;29;37878;-83
2023/07/28 06:47:12;;;;;;;12.52;5.47;;;19.30;99.90;;;;;;4899617;29;38454;-83
2023/07/28 06:49:38;;;;;;;17.58;6.00;;;19.40;99.90;;;;;;4899612;29;36449;-83
2023/07/28 06:52:05;;;;;;;20.95;5.85;;;19.50;99.90;;;;;;4892457;29;37552;-81
2023/07/28 06:54:31;;;;;;;16.80;6.00;;;19.60;99.90;;;;;;4904542;29;38964;-81
2023/07/28 06:56:57;;;;;;;17.63;6.30;;;19.60;99.90;;;;;;4881897;29;37241;-83
2023/07/28 06:59:23;;;;;;;20.65;7.07;;;19.60;99.90;;;;;;4908533;29;35849;-83
2023/07/28 07:01:49;;;;;;;15.40;6.32;;;19.60;99.90;;;;;;4911642;29;39873;-82
2023/07/28 07:04:15;;;;;;;15.35;6.65;;;19.60;99.90;;;;;;4901961;29;37888;-83
2023/07/28 07:06:42;;;;;;;25.33;7.82;;;19.60;99.90;;;;;;4922813;29;39026;-82
2023/07/28 07:09:08;;;;;;;19.33;6.47;;;19.60;99.90;;;;;;4928513;29;38312;-82
2023/07/28 07:11:35;;;;;;;15.88;6.55;;;19.60;99.90;;;;;;4905810;29;37647;-82
2023/07/28 07:14:01;;;;;;;23.88;7.80;;;19.60;99.90;;;;;;4908103;29;38436;-81
2023/07/28 07:16:27;;;;;;;17.17;6.65;;;19.60;99.90;;;;;;4896427;29;37661;-83
2023/07/28 07:18:53;;;;;;;16.27;6.82;;;19.60;99.90;;;;;;4929091;29;36780;-83
2023/07/28 07:21:20;;;;;;;17.00;7.13;;;19.70;99.90;;;;;;4902712;29;39419;-83
2023/07/28 07:23:46;;;;;;;19.58;7.38;;;19.60;99.90;;;;;;4912703;29;38115;-82
2023/07/28 07:26:12;;;;;;;14.48;6.90;;;19.60;99.90;;;;;;4914571;29;37469;-82
2023/07/28 07:28:38;;;;;;;19.30;9.13;;;19.50;99.90;;;;;;4926223;29;38387;-82
2023/07/28 07:31:04;;;;;;;16.95;7.07;;;19.50;99.90;;;;;;4908689;29;38544;-82
2023/07/28 07:33:30;;;;;;;11.88;6.38;;;19.50;99.90;;;;;;4903442;29;38182;-83
2023/07/28 07:35:56;;;;;;;17.67;7.95;;;19.60;99.90;;;;;;4915558;29;37438;-84
2023/07/28 07:38:23;;;;;;;16.65;8.10;;;19.50;99.90;;;;;;4902520;29;37196;-84
2023/07/28 07:40:49;;;;;;;17.77;7.05;;;19.50;99.90;;;;;;4902176;29;37513;-82
2023/07/28 07:43:20;;;;;;;16.80;7.75;;;19.50;99.90;;;;;;4924604;29;39628;-83
2023/07/28 07:45:51;;;;;;;17.98;7.38;;;19.50;99.90;;;;;;4912946;29;38000;-83
2023/07/28 07:48:17;;;;;;;19.03;7.23;;;19.60;99.90;;;;;;4914813;29;37495;-82
2023/07/28 07:50:43;;;;;;;16.33;7.70;;;19.60;99.90;;;;;;4900353;29;37657;-83
2023/07/28 07:53:09;;;;;;;12.93;6.82;;;19.70;99.90;;;;;;4923085;29;39804;-82
2023/07/28 07:55:35;;;;;;;14.35;7.18;;;19.70;99.90;;;;;;4907855;29;37367;-82
2023/07/28 07:58:03;;;;;;;15.68;7.10;;;19.70;99.90;;;;;;4903598;29;35905;-82
2023/07/28 08:00:29;;;;;;;19.50;7.28;;;19.70;99.90;;;;;;4928293;29;39721;-82
2023/07/28 08:02:55;;;;;;;15.40;7.93;;;19.70;99.90;;;;;;4894169;29;37708;-83
2023/07/28 08:05:22;;;;;;;12.68;8.00;;;19.70;99.90;;;;;;4907295;29;37217;-83
2023/07/28 08:07:48;;;;;;;17.48;8.10;;;19.60;99.90;;;;;;4905956;29;37091;-83
2023/07/28 08:10:14;;;;;;;11.85;6.65;;;19.60;99.90;;;;;;4907551;29;39924;-83
2023/07/28 08:12:41;;;;;;;12.45;7.55;;;19.70;99.90;;;;;;4905755;29;38258;-83
2023/07/28 08:15:08;;;;;;;15.45;7.78;;;19.70;99.90;;;;;;4918070;29;38802;-82
2023/07/28 08:17:34;;;;;;;15.05;7.72;;;19.70;99.90;;;;;;4919084;29;37668;-82
2023/07/28 08:20:00;;;;;;;15.30;7.57;;;19.80;99.90;;;;;;4900386;29;38379;-82
2023/07/28 08:22:26;;;;;;;14.57;7.82;;;19.80;99.90;;;;;;4918768;29;38959;-82
2023/07/28 08:24:53;;;;;;;17.25;7.85;;;19.80;99.90;;;;;;4906906;29;37151;-83
2023/07/28 08:27:19;;;;;;;16.25;7.28;;;19.90;99.90;;;;;;4923886;29;38278;-83
2023/07/28 08:29:45;;;;;;;13.75;7.10;;;19.70;99.90;;;;;;4910541;29;37723;-83
2023/07/28 08:32:11;;;;;;;19.45;7.90;;;19.70;99.90;;;;;;4911292;29;37989;-83
2023/07/28 08:34:37;;;;;;;17.02;7.03;;;19.70;99.90;;;;;;4931518;29;38039;-82
2023/07/28 08:37:04;;;;;;;13.10;6.85;;;19.80;99.90;;;;;;4903878;29;37137;-83
2023/07/28 08:39:30;;;;;;;11.38;6.50;;;19.90;99.90;;;;;;4916482;29;38174;-83
2023/07/28 08:42:03;;;;;;;18.25;6.97;;;20.00;99.90;;;;;;4904539;29;38359;-82
2023/07/28 08:44:33;;;;;;;14.73;6.60;;;20.00;99.90;;;;;;4933969;29;49067;-82
2023/07/28 08:47:06;;;;;;;10.30;5.60;;;20.00;99.90;;;;;;4913008;29;35965;-82
2023/07/28 08:49:36;;;;;;;9.10;4.90;;;20.10;99.90;;;;;;4916128;29;47176;-82
2023/07/28 08:52:04;;;;;;;13.90;5.20;;;20.10;99.90;;;;;;4927387;29;38644;-82
2023/07/28 08:54:30;;;;;;;13.90;5.70;;;20.20;99.90;;;;;;4927929;29;39283;-83
2023/07/28 08:56:59;;;;;;;10.50;5.82;;;20.30;99.90;;;;;;4915909;29;37492;-82
2023/07/28 08:59:27;;;;;;;11.30;6.07;;;20.40;99.90;;;;;;4920886;29;38989;-82
2023/07/28 09:01:55;;;;;;;13.82;5.45;;;20.40;99.90;;;;;;4909339;29;39299;-82
2023/07/28 09:04:22;;;;;;;13.77;5.65;;;20.60;99.90;;;;;;4899654;29;37376;-81
2023/07/28 09:06:49;;;;;;;9.93;5.15;;;20.90;99.90;;;;;;4915798;29;37210;-83
2023/07/28 09:09:17;;;;;;;12.18;4.93;;;20.80;99.90;;;;;;4930881;29;38273;-82
2023/07/28 09:11:48;;;;;;;8.77;4.88;;;20.90;99.90;;;;;;4907629;29;38799;-82
2023/07/28 09:14:16;;;;;;;9.55;4.78;;;20.90;99.90;;;;;;4920434;29;38188;-82
2023/07/28 09:16:46;;;;;;;10.18;5.10;;;20.90;99.90;;;;;;4922212;29;37484;-82
2023/07/28 09:19:13;;;;;;;10.25;4.20;;;21.00;99.90;;;;;;4919044;29;38043;-81
2023/07/28 09:21:46;;;;;;;8.27;4.40;;;21.10;99.90;;;;;;4926003;29;37796;-82
2023/07/28 09:24:13;;;;;;;9.57;4.65;;;21.00;99.90;;;;;;4905093;28;38660;-81
2023/07/28 09:26:50;;;;;;;11.20;4.05;;;20.90;99.90;;;;;;4937228;28;36205;-81
2023/07/28 09:29:20;;;;;;;7.45;3.75;;;21.10;99.90;;;;;;4923338;29;38724;-82
2023/07/28 09:31:49;;;;;;;9.40;4.40;;;21.20;99.90;;;;;;4903180;29;39221;-82
2023/07/28 09:34:26;;;;;;;10.77;4.65;;;21.30;99.90;;;;;;4904731;29;38704;-81
2023/07/28 09:36:59;;;;;;;13.70;4.78;;;21.30;99.90;;;;;;4902784;29;36416;-81
2023/07/28 09:39:26;;;;;;;11.13;4.80;;;21.20;99.90;;;;;;4903378;29;37989;-80
2023/07/28 09:41:57;;;;;;;12.10;4.43;;;21.10;99.90;;;;;;4908145;29;37815;-80
2023/07/28 09:44:23;;;;;;;7.07;3.80;;;21.00;99.90;;;;;;4916849;29;38368;-80
2023/07/28 09:46:57;;;;;;;10.43;3.88;;;21.10;99.90;;;;;;4906378;29;36145;-80
2023/07/28 09:49:50;;;;;;;11.25;4.10;;;21.10;99.90;;;;;;4909883;29;37812;-82
2023/07/28 09:52:18;;;;;;;9.20;4.10;;;21.10;99.90;;;;;;4895335;29;40265;-80
2023/07/28 09:54:48;;;;;;;10.15;3.58;;;21.10;99.90;;;;;;4916119;29;37207;-79
2023/07/28 09:57:20;;;;;;;8.18;4.18;;;21.00;99.90;;;;;;4901132;29;37422;-81
2023/07/28 09:59:47;;;;;;;8.68;3.90;;;21.00;99.90;;;;;;4907340;29;39401;-81
2023/07/28 10:02:14;;;;;;;8.98;3.58;;;21.00;99.90;;;;;;4901710;29;37830;-80
2023/07/28 10:04:41;;;;;;;6.35;3.90;;;21.10;99.90;;;;;;4921518;29;37809;-80
2023/07/28 10:07:08;;;;;;;8.02;3.83;;;21.20;99.90;;;;;;4909391;29;36128;-80
2023/07/28 10:09:37;;;;;;;6.88;3.72;;;21.30;99.90;;;;;;4907401;29;37646;-81
2023/07/28 10:12:03;;;;;;;6.28;3.70;;;21.30;99.90;;;;;;4903090;29;38669;-81
2023/07/28 10:14:31;;;;;;;5.22;2.83;;;21.30;99.90;;;;;;4915293;29;37615;-81
2023/07/28 10:16:58;;;;;;;8.80;3.55;;;21.60;99.90;;;;;;4932190;29;37222;-80
2023/07/28 10:19:28;;;;;;;6.88;3.40;;;21.70;99.90;;;;;;4901364;29;37702;-80
2023/07/28 10:22:02;;;;;;;8.00;3.58;;;21.60;99.90;;;;;;4915219;29;37788;-81
2023/07/28 10:24:53;;;;;;;8.05;3.53;;;21.60;99.90;;;;;;4911371;29;47339;-81
2023/07/28 10:27:49;;;;;;;5.80;3.40;;;21.90;99.90;;;;;;4902482;29;37467;-81
2023/07/28 10:30:15;;;;;;;8.95;3.15;;;21.90;99.90;;;;;;4917230;29;39891;-82
2023/07/28 10:32:44;;;;;;;11.65;3.50;;;21.80;99.90;;;;;;4922091;29;40077;-81
2023/07/28 10:35:13;;;;;;;9.10;3.55;;;21.70;99.90;;;;;;4913249;29;40068;-81
2023/07/28 10:37:44;;;;;;;8.68;3.08;;;21.60;99.90;;;;;;4909730;29;35885;-81
2023/07/28 10:40:35;;;;;;;7.88;3.20;;;21.60;99.90;;;;;;4909023;29;37711;-81
2023/07/28 10:43:04;;;;;;;9.73;3.15;;;21.50;99.90;;;;;;4907766;29;38724;-79
2023/07/28 10:45:32;;;;;;;6.28;2.92;;;22.10;99.90;;;;;;4903072;29;38614;-79
2023/07/28 10:48:03;;;;;;;6.88;3.30;;;22.40;99.90;;;;;;4904300;29;36129;-79
2023/07/28 10:50:31;;;;;;;6.68;2.80;;;22.50;99.90;;;;;;4925478;29;49149;-80
2023/07/28 10:52:57;;;;;;;7.45;3.65;;;22.80;99.90;;;;;;4905405;29;37802;-81
2023/07/28 10:55:27;;;;;;;9.27;4.45;;;22.90;99.90;;;;;;4908540;29;37443;-80
2023/07/28 10:57:55;;;;;;;9.02;4.20;;;22.80;99.90;;;;;;4919236;29;36810;-80
2023/07/28 11:00:22;;;;;;;8.80;4.82;;;22.60;99.90;;;;;;4906240;29;37696;-79
2023/07/28 11:02:55;;;;;;;8.93;4.65;;;22.30;99.90;;;;;;4908875;29;37999;-79
2023/07/28 11:05:22;;;;;;;9.40;4.70;;;22.00;99.90;;;;;;4905938;29;37539;-82
2023/07/28 11:07:57;;;;;;;9.23;4.25;;;21.80;99.90;;;;;;4930814;29;36908;-81
2023/07/28 11:10:28;;;;;;;7.65;5.13;;;21.90;99.90;;;;;;4907231;29;37399;-80
2023/07/28 11:12:57;;;;;;;7.60;4.28;;;22.20;99.90;;;;;;4917306;28;37932;-80
2023/07/28 11:15:25;;;;;;;6.55;4.20;;;22.60;99.90;;;;;;4920699;29;38976;-80
2023/07/28 11:17:52;;;;;;;8.73;5.43;;;23.10;99.90;;;;;;4925540;29;38550;-80
2023/07/28 11:20:21;;;;;;;10.00;5.25;;;22.90;99.90;;;;;;4908413;29;37631;-80
2023/07/28 11:22:57;;;;;;;8.02;4.80;;;22.80;99.90;;;;;;4905205;29;39303;-80
2023/07/28 11:25:24;;;;;;;6.75;4.05;;;22.80;99.90;;;;;;4928777;29;38712;-80
2023/07/28 11:27:51;;;;;;;7.93;4.63;;;22.80;99.90;;;;;;4907044;29;36117;-79
2023/07/28 11:30:19;;;;;;;12.57;6.80;;;22.80;99.90;;;;;;4927334;29;39228;-79
2023/07/28 11:32:50;;;;;;;12.95;8.50;;;22.70;99.90;;;;;;4907302;29;38619;-79
2023/07/28 11:35:19;;;;;;;14.02;7.55;;;22.30;99.90;;;;;;4924679;29;39735;-80
2023/07/28 11:37:57;;;;;;;12.95;7.07;;;22.10;99.90;;;;;;4908862;29;36248;-80
2023/07/28 11:40:25;;;;;;;10.80;7.72;;;22.00;99.90;;;;;;4905598;29;38024;-80
2023/07/28 11:42:54;;;;;;;19.50;9.98;;;22.00;99.90;;;;;;4928120;29;38836;-80
2023/07/28 11:45:22;;;;;;;17.38;10.43;;;22.10;99.90;;;;;;4905416;29;38772;-80
2023/07/28 11:47:51;;;;;;;11.95;8.88;;;22.20;99.90;;;;;;4919143;29;36300;-80
2023/07/28 11:50:25;;;;;;;11.60;9.38;;;22.60;99.90;;;;;;4903319;29;37561;-79
2023/07/28 11:52:52;;;;;;;15.77;9.82;;;22.90;99.90;;;;;;4913996;29;37808;-80
2023/07/28 11:55:18;;;;;;;12.70;9.32;;;22.90;99.90;;;;;;4914425;29;37612;-80
2023/07/28 11:57:45;;;;;;;17.77;9.95;;;23.20;99.90;;;;;;4901231;29;36614;-79
2023/07/28 12:00:12;;;;;;;17.15;12.05;;;23.80;99.90;;;;;;4908303;29;37899;-79
2023/07/28 12:02:43;;;;;;;16.42;12.88;;;23.90;99.90;;;;;;4866882;29;1302462;-78
2023/07/28 12:05:16;;;;;;;24.23;13.90;;;23.50;99.90;;;;;;4919914;28;37422;-78
2023/07/28 12:07:48;;;;;;;20.10;13.07;;;23.60;99.90;;;;;;4925519;29;38339;-80
2023/07/28 12:10:15;;;;;;;16.35;12.85;;;23.70;99.90;;;;;;4931013;29;39083;-80
2023/07/28 12:12:44;;;;;;;20.70;14.77;;;23.60;99.90;;;;;;4930106;29;38992;-80
2023/07/28 12:15:33;;;;;;;21.60;14.05;;;23.50;99.90;;;;;;4930437;29;37731;-80
2023/07/28 12:18:06;;;;;;;19.92;15.10;;;23.50;99.90;;;;;;4918481;29;37617;-78
2023/07/28 12:20:57;;;;;;;18.95;14.27;;;23.30;99.90;;;;;;4922860;29;49577;-80
2023/07/28 12:23:37;;;;;;;16.27;14.27;;;23.20;99.90;;;;;;4936534;29;38921;-79
2023/07/28 12:26:10;;;;;;;16.48;13.27;;;23.10;99.90;;;;;;4904554;29;37683;-80
2023/07/28 12:28:36;;;;;;;20.15;15.55;;;22.90;99.90;;;;;;4907038;29;38448;-80
2023/07/28 12:31:02;;;;;;;19.15;14.05;;;22.70;99.90;;;;;;4904859;29;37849;-80
2023/07/28 12:33:29;;;;;;;18.92;16.23;;;22.50;99.90;;;;;;4915406;29;37884;-78
2023/07/28 12:35:55;;;;;;;19.20;15.82;;;22.50;99.90;;;;;;4902793;29;39177;-79
2023/07/28 12:38:21;;;;;;;17.25;15.45;;;22.40;99.90;;;;;;4919510;29;36637;-78
2023/07/28 12:40:47;;;;;;;18.65;15.20;;;22.40;99.90;;;;;;4900643;29;37540;-80